sensor_id;sensor_type;location;lat;lon;timestamp;P1;durP1;ratioP1;P2;durP2;ratioP2
52057;SDS011;38063;53.210;6.504;2023-07-28T00:02:08;23.77;;;12.70;;
52057;SDS011;38063;53.210;6.504;2023-07-28T00:04:34;35.35;;;13.40;;
52057;SDS011;38063;53.210;6.504;2023-07-28T00:07:00;31.42;;;13.43;;
52057;SDS011;38063;53.210;6.504;2023-07-28T00:09:26;28.17;;;15.35;;
52057;SDS011;38063;53.210;6.504;2023-07-28T00:11:52;27.98;;;14.60;;
52057;SDS011;38063;53.210;6.504;2023-07-28T00:14:18;36.00;;;15.38;;
52057;SDS011;38063;53.210;6.504;2023-07-28T00:16:43;28.70;;;15.05;;
52057;SDS011;38063;53.210;6.504;2023-07-28T00:19:09;23.23;;;14.27;;
52057;SDS011;38063;53.210;6.504;2023-07-28T00:21:35;28.15;;;14.00;;
52057;SDS011;38063;53.210;6.504;2023-07-28T00:24:00;26.08;;;12.43;;
52057;SDS011;38063;53.210;6.504;2023-07-28T00:26:26;31.10;;;13.02;;
52057;SDS011;38063;53.210;6.504;2023-07-28T00:28:52;24.40;;;12.65;;
52057;SDS011;38063;53.210;6.504;2023-07-28T00:31:17;28.55;;;12.85;;
52057;SDS011;38063;53.210;6.504;2023-07-28T00:33:43;28.75;;;13.88;;
52057;SDS011;38063;53.210;6.504;2023-07-28T00:36:08;26.60;;;13.48;;
52057;SDS011;38063;53.210;6.504;2023-07-28T00:38:34;31.90;;;14.18;;
52057;SDS011;38063;53.210;6.504;2023-07-28T00:41:00;27.70;;;13.68;;
52057;SDS011;38063;53.210;6.504;2023-07-28T00:43:25;29.70;;;12.95;;
52057;SDS011;38063;53.210;6.504;2023-07-28T00:45:51;24.23;;;12.40;;
52057;SDS011;38063;53.210;6.504;2023-07-28T00:48:17;30.75;;;12.85;;
52057;SDS011;38063;53.210;6.504;2023-07-28T00:50:46;29.48;;;13.43;;
52057;SDS011;38063;53.210;6.504;2023-07-28T00:53:13;26.85;;;13.45;;
52057;SDS011;38063;53.210;6.504;2023-07-28T00:55:39;29.42;;;14.52;;
52057;SDS011;38063;53.210;6.504;2023-07-28T00:58:06;28.25;;;14.15;;
52057;SDS011;38063;53.210;6.504;2023-07-28T01:00:31;32.35;;;12.95;;
52057;SDS011;38063;53.210;6.504;2023-07-28T01:02:57;26.50;;;12.93;;
52057;SDS011;38063;53.210;6.504;2023-07-28T01:05:26;24.83;;;14.35;;
52057;SDS011;38063;53.210;6.504;2023-07-28T01:10:31;36.95;;;14.23;;
52057;SDS011;38063;53.210;6.504;2023-07-28T01:12:57;30.30;;;14.27;;
52057;SDS011;38063;53.210;6.504;2023-07-28T01:15:23;25.13;;;14.05;;
52057;SDS011;38063;53.210;6.504;2023-07-28T01:17:50;36.67;;;14.52;;
52057;SDS011;38063;53.210;6.504;2023-07-28T01:20:16;34.17;;;15.23;;
52057;SDS011;38063;53.210;6.504;2023-07-28T01:28:21;33.58;;;15.75;;
52057;SDS011;38063;53.210;6.504;2023-07-28T01:30:48;43.13;;;15.68;;
52057;SDS011;38063;53.210;6.504;2023-07-28T01:33:13;29.48;;;14.52;;
52057;SDS011;38063;53.210;6.504;2023-07-28T01:35:39;26.88;;;13.98;;
52057;SDS011;38063;53.210;6.504;2023-07-28T01:38:04;32.08;;;13.63;;
52057;SDS011;38063;53.210;6.504;2023-07-28T01:40:30;29.50;;;14.43;;
52057;SDS011;38063;53.210;6.504;2023-07-28T01:42:56;26.98;;;13.00;;
52057;SDS011;38063;53.210;6.504;2023-07-28T01:45:22;24.77;;;11.70;;
52057;SDS011;38063;53.210;6.504;2023-07-28T01:47:47;23.33;;;12.10;;
52057;SDS011;38063;53.210;6.504;2023-07-28T01:50:13;23.90;;;12.73;;
52057;SDS011;38063;53.210;6.504;2023-07-28T01:52:39;22.45;;;12.80;;
52057;SDS011;38063;53.210;6.504;2023-07-28T01:55:04;26.75;;;12.30;;
52057;SDS011;38063;53.210;6.504;2023-07-28T01:57:34;23.83;;;11.38;;
52057;SDS011;38063;53.210;6.504;2023-07-28T02:00:04;21.73;;;10.30;;
52057;SDS011;38063;53.210;6.504;2023-07-28T02:02:30;16.98;;;10.25;;
52057;SDS011;38063;53.210;6.504;2023-07-28T02:04:55;20.10;;;11.10;;
52057;SDS011;38063;53.210;6.504;2023-07-28T02:07:21;25.85;;;11.23;;
52057;SDS011;38063;53.210;6.504;2023-07-28T02:09:47;27.35;;;11.65;;
52057;SDS011;38063;53.210;6.504;2023-07-28T02:12:12;20.17;;;11.93;;
52057;SDS011;38063;53.210;6.504;2023-07-28T02:14:38;24.85;;;12.02;;
52057;SDS011;38063;53.210;6.504;2023-07-28T02:17:04;24.90;;;12.52;;
52057;SDS011;38063;53.210;6.504;2023-07-28T02:19:30;24.23;;;12.77;;
52057;SDS011;38063;53.210;6.504;2023-07-28T02:21:56;20.63;;;12.48;;
52057;SDS011;38063;53.210;6.504;2023-07-28T02:24:21;33.88;;;15.23;;
52057;SDS011;38063;53.210;6.504;2023-07-28T02:26:47;33.83;;;15.68;;
52057;SDS011;38063;53.210;6.504;2023-07-28T02:29:13;47.67;;;16.65;;
52057;SDS011;38063;53.210;6.504;2023-07-28T02:31:38;34.50;;;15.48;;
52057;SDS011;38063;53.210;6.504;2023-07-28T02:34:04;36.53;;;15.68;;
52057;SDS011;38063;53.210;6.504;2023-07-28T02:36:29;40.22;;;16.58;;
52057;SDS011;38063;53.210;6.504;2023-07-28T02:38:56;33.85;;;16.60;;
52057;SDS011;38063;53.210;6.504;2023-07-28T02:41:21;34.53;;;15.68;;
52057;SDS011;38063;53.210;6.504;2023-07-28T02:43:47;37.13;;;16.88;;
52057;SDS011;38063;53.210;6.504;2023-07-28T02:46:12;41.55;;;17.63;;
52057;SDS011;38063;53.210;6.504;2023-07-28T02:48:38;37.38;;;16.90;;
52057;SDS011;38063;53.210;6.504;2023-07-28T02:51:04;44.10;;;16.60;;
52057;SDS011;38063;53.210;6.504;2023-07-28T02:53:29;34.15;;;16.38;;
52057;SDS011;38063;53.210;6.504;2023-07-28T02:55:56;32.63;;;15.60;;
52057;SDS011;38063;53.210;6.504;2023-07-28T02:58:21;37.65;;;16.05;;
52057;SDS011;38063;53.210;6.504;2023-07-28T03:00:47;38.05;;;16.52;;
52057;SDS011;38063;53.210;6.504;2023-07-28T03:03:13;35.95;;;16.75;;
52057;SDS011;38063;53.210;6.504;2023-07-28T03:05:39;35.25;;;15.57;;
52057;SDS011;38063;53.210;6.504;2023-07-28T03:08:05;37.42;;;15.60;;
52057;SDS011;38063;53.210;6.504;2023-07-28T03:10:31;38.65;;;15.40;;
52057;SDS011;38063;53.210;6.504;2023-07-28T03:12:57;35.50;;;13.93;;
52057;SDS011;38063;53.210;6.504;2023-07-28T03:15:23;33.58;;;15.15;;
52057;SDS011;38063;53.210;6.504;2023-07-28T03:17:51;29.27;;;13.45;;
52057;SDS011;38063;53.210;6.504;2023-07-28T03:20:19;34.30;;;13.00;;
52057;SDS011;38063;53.210;6.504;2023-07-28T03:22:45;29.20;;;13.05;;
52057;SDS011;38063;53.210;6.504;2023-07-28T03:25:12;27.42;;;12.63;;
52057;SDS011;38063;53.210;6.504;2023-07-28T03:27:38;28.98;;;13.27;;
52057;SDS011;38063;53.210;6.504;2023-07-28T03:30:03;29.23;;;12.57;;
52057;SDS011;38063;53.210;6.504;2023-07-28T03:32:32;38.65;;;13.43;;
52057;SDS011;38063;53.210;6.504;2023-07-28T03:34:57;34.30;;;12.73;;
52057;SDS011;38063;53.210;6.504;2023-07-28T03:37:23;27.40;;;11.10;;
52057;SDS011;38063;53.210;6.504;2023-07-28T03:39:49;24.08;;;10.90;;
52057;SDS011;38063;53.210;6.504;2023-07-28T03:42:14;30.95;;;11.27;;
52057;SDS011;38063;53.210;6.504;2023-07-28T03:44:40;27.05;;;10.63;;
52057;SDS011;38063;53.210;6.504;2023-07-28T03:47:07;23.25;;;10.05;;
52057;SDS011;38063;53.210;6.504;2023-07-28T03:49:33;19.05;;;10.23;;
52057;SDS011;38063;53.210;6.504;2023-07-28T03:51:58;24.85;;;10.10;;
52057;SDS011;38063;53.210;6.504;2023-07-28T03:54:24;28.13;;;9.75;;
52057;SDS011;38063;53.210;6.504;2023-07-28T03:56:50;24.50;;;9.70;;
52057;SDS011;38063;53.210;6.504;2023-07-28T03:59:16;22.88;;;9.05;;
52057;SDS011;38063;53.210;6.504;2023-07-28T04:01:42;22.25;;;9.60;;
52057;SDS011;38063;53.210;6.504;2023-07-28T04:04:07;24.25;;;8.80;;
52057;SDS011;38063;53.210;6.504;2023-07-28T04:06:44;23.90;;;10.18;;
52057;SDS011;38063;53.210;6.504;2023-07-28T04:09:18;28.67;;;9.07;;
52057;SDS011;38063;53.210;6.504;2023-07-28T04:11:44;17.85;;;8.85;;
52057;SDS011;38063;53.210;6.504;2023-07-28T04:14:10;27.13;;;9.45;;
52057;SDS011;38063;53.210;6.504;2023-07-28T04:16:36;21.63;;;9.20;;
52057;SDS011;38063;53.210;6.504;2023-07-28T04:19:02;24.65;;;9.32;;
52057;SDS011;38063;53.210;6.504;2023-07-28T04:21:27;23.40;;;9.18;;
52057;SDS011;38063;53.210;6.504;2023-07-28T04:23:53;25.08;;;9.85;;
52057;SDS011;38063;53.210;6.504;2023-07-28T04:26:19;23.67;;;10.25;;
52057;SDS011;38063;53.210;6.504;2023-07-28T04:28:44;25.10;;;8.93;;
52057;SDS011;38063;53.210;6.504;2023-07-28T04:31:10;16.98;;;8.80;;
52057;SDS011;38063;53.210;6.504;2023-07-28T04:33:38;24.80;;;8.18;;
52057;SDS011;38063;53.210;6.504;2023-07-28T04:36:06;22.73;;;8.50;;
52057;SDS011;38063;53.210;6.504;2023-07-28T04:38:32;19.80;;;10.02;;
52057;SDS011;38063;53.210;6.504;2023-07-28T04:40:57;25.52;;;9.45;;
52057;SDS011;38063;53.210;6.504;2023-07-28T04:43:23;22.45;;;9.18;;
52057;SDS011;38063;53.210;6.504;2023-07-28T04:45:49;25.25;;;9.00;;
52057;SDS011;38063;53.210;6.504;2023-07-28T04:48:14;16.15;;;8.85;;
52057;SDS011;38063;53.210;6.504;2023-07-28T04:50:40;17.50;;;8.88;;
52057;SDS011;38063;53.210;6.504;2023-07-28T04:53:05;15.32;;;8.52;;
52057;SDS011;38063;53.210;6.504;2023-07-28T04:55:31;18.15;;;8.80;;
52057;SDS011;38063;53.210;6.504;2023-07-28T04:57:57;15.23;;;8.20;;
52057;SDS011;38063;53.210;6.504;2023-07-28T05:00:22;18.45;;;8.00;;
52057;SDS011;38063;53.210;6.504;2023-07-28T05:02:48;20.70;;;8.35;;
52057;SDS011;38063;53.210;6.504;2023-07-28T05:05:14;17.90;;;8.35;;
52057;SDS011;38063;53.210;6.504;2023-07-28T05:07:40;19.90;;;8.18;;
52057;SDS011;38063;53.210;6.504;2023-07-28T05:10:06;13.93;;;8.30;;
52057;SDS011;38063;53.210;6.504;2023-07-28T05:12:32;16.25;;;8.27;;
52057;SDS011;38063;53.210;6.504;2023-07-28T05:14:57;19.35;;;7.75;;
52057;SDS011;38063;53.210;6.504;2023-07-28T05:17:23;13.88;;;7.97;;
52057;SDS011;38063;53.210;6.504;2023-07-28T05:19:51;18.40;;;7.63;;
52057;SDS011;38063;53.210;6.504;2023-07-28T05:22:17;16.48;;;7.75;;
52057;SDS011;38063;53.210;6.504;2023-07-28T05:24:43;17.40;;;7.95;;
52057;SDS011;38063;53.210;6.504;2023-07-28T05:27:10;15.80;;;7.78;;
52057;SDS011;38063;53.210;6.504;2023-07-28T05:29:36;13.18;;;7.68;;
52057;SDS011;38063;53.210;6.504;2023-07-28T05:32:02;16.73;;;7.53;;
52057;SDS011;38063;53.210;6.504;2023-07-28T05:34:29;16.70;;;7.90;;
52057;SDS011;38063;53.210;6.504;2023-07-28T05:36:54;16.15;;;7.78;;
52057;SDS011;38063;53.210;6.504;2023-07-28T05:39:23;21.73;;;8.75;;
52057;SDS011;38063;53.210;6.504;2023-07-28T05:41:49;17.15;;;8.10;;
52057;SDS011;38063;53.210;6.504;2023-07-28T05:44:15;14.32;;;7.43;;
52057;SDS011;38063;53.210;6.504;2023-07-28T05:46:40;14.77;;;7.78;;
52057;SDS011;38063;53.210;6.504;2023-07-28T05:49:06;25.02;;;8.48;;
52057;SDS011;38063;53.210;6.504;2023-07-28T05:51:33;25.27;;;8.85;;
52057;SDS011;38063;53.210;6.504;2023-07-28T05:53:58;22.05;;;8.10;;
52057;SDS011;38063;53.210;6.504;2023-07-28T05:56:24;16.20;;;7.80;;
52057;SDS011;38063;53.210;6.504;2023-07-28T05:58:50;20.02;;;8.35;;
52057;SDS011;38063;53.210;6.504;2023-07-28T06:01:16;19.10;;;8.43;;
52057;SDS011;38063;53.210;6.504;2023-07-28T06:03:42;15.32;;;8.18;;
52057;SDS011;38063;53.210;6.504;2023-07-28T06:06:08;17.48;;;8.40;;
52057;SDS011;38063;53.210;6.504;2023-07-28T06:08:34;17.00;;;7.80;;
52057;SDS011;38063;53.210;6.504;2023-07-28T06:11:00;14.93;;;8.38;;
52057;SDS011;38063;53.210;6.504;2023-07-28T06:13:29;14.63;;;8.27;;
52057;SDS011;38063;53.210;6.504;2023-07-28T06:15:54;14.65;;;8.05;;
52057;SDS011;38063;53.210;6.504;2023-07-28T06:18:21;11.93;;;8.27;;
52057;SDS011;38063;53.210;6.504;2023-07-28T06:20:47;17.45;;;9.30;;
52057;SDS011;38063;53.210;6.504;2023-07-28T06:23:13;18.85;;;9.68;;
52057;SDS011;38063;53.210;6.504;2023-07-28T06:25:38;20.90;;;8.20;;
52057;SDS011;38063;53.210;6.504;2023-07-28T06:28:09;21.73;;;9.52;;
52057;SDS011;38063;53.210;6.504;2023-07-28T06:30:35;17.98;;;10.05;;
52057;SDS011;38063;53.210;6.504;2023-07-28T06:33:02;13.30;;;9.30;;
52057;SDS011;38063;53.210;6.504;2023-07-28T06:35:28;15.40;;;9.20;;
52057;SDS011;38063;53.210;6.504;2023-07-28T06:37:54;11.93;;;9.10;;
52057;SDS011;38063;53.210;6.504;2023-07-28T06:40:19;37.30;;;12.07;;
52057;SDS011;38063;53.210;6.504;2023-07-28T06:42:45;20.33;;;10.25;;
52057;SDS011;38063;53.210;6.504;2023-07-28T06:45:11;28.33;;;10.52;;
52057;SDS011;38063;53.210;6.504;2023-07-28T06:47:37;24.88;;;9.48;;
52057;SDS011;38063;53.210;6.504;2023-07-28T06:50:03;19.08;;;9.23;;
52057;SDS011;38063;53.210;6.504;2023-07-28T06:52:30;13.77;;;8.45;;
52057;SDS011;38063;53.210;6.504;2023-07-28T06:54:56;10.80;;;8.23;;
52057;SDS011;38063;53.210;6.504;2023-07-28T06:57:21;9.82;;;7.72;;
52057;SDS011;38063;53.210;6.504;2023-07-28T06:59:47;14.50;;;7.47;;
52057;SDS011;38063;53.210;6.504;2023-07-28T07:02:16;38.00;;;10.77;;
52057;SDS011;38063;53.210;6.504;2023-07-28T07:04:42;18.63;;;7.38;;
52057;SDS011;38063;53.210;6.504;2023-07-28T07:07:08;10.30;;;6.65;;
52057;SDS011;38063;53.210;6.504;2023-07-28T07:09:34;7.18;;;6.18;;
52057;SDS011;38063;53.210;6.504;2023-07-28T07:12:00;14.30;;;6.95;;
52057;SDS011;38063;53.210;6.504;2023-07-28T07:14:26;15.30;;;7.22;;
52057;SDS011;38063;53.210;6.504;2023-07-28T07:16:51;44.97;;;9.80;;
52057;SDS011;38063;53.210;6.504;2023-07-28T07:19:17;20.05;;;6.38;;
52057;SDS011;38063;53.210;6.504;2023-07-28T07:21:42;7.85;;;6.35;;
52057;SDS011;38063;53.210;6.504;2023-07-28T07:24:09;8.68;;;6.03;;
52057;SDS011;38063;53.210;6.504;2023-07-28T07:26:38;8.80;;;6.82;;
52057;SDS011;38063;53.210;6.504;2023-07-28T07:29:04;21.75;;;8.88;;
52057;SDS011;38063;53.210;6.504;2023-07-28T07:31:30;10.73;;;8.20;;
52057;SDS011;38063;53.210;6.504;2023-07-28T07:33:56;10.27;;;7.15;;
52057;SDS011;38063;53.210;6.504;2023-07-28T07:36:22;10.48;;;7.63;;
52057;SDS011;38063;53.210;6.504;2023-07-28T07:38:47;11.30;;;7.55;;
52057;SDS011;38063;53.210;6.504;2023-07-28T07:41:16;8.18;;;6.38;;
52057;SDS011;38063;53.210;6.504;2023-07-28T07:43:45;7.85;;;6.07;;
52057;SDS011;38063;53.210;6.504;2023-07-28T07:46:11;7.07;;;5.55;;
52057;SDS011;38063;53.210;6.504;2023-07-28T07:48:37;6.78;;;5.95;;
52057;SDS011;38063;53.210;6.504;2023-07-28T07:51:03;7.10;;;5.97;;
52057;SDS011;38063;53.210;6.504;2023-07-28T07:53:29;9.60;;;6.60;;
52057;SDS011;38063;53.210;6.504;2023-07-28T07:55:54;8.95;;;6.85;;
52057;SDS011;38063;53.210;6.504;2023-07-28T07:58:20;9.35;;;6.80;;
52057;SDS011;38063;53.210;6.504;2023-07-28T08:00:46;11.13;;;7.07;;
52057;SDS011;38063;53.210;6.504;2023-07-28T08:03:11;12.75;;;7.38;;
52057;SDS011;38063;53.210;6.504;2023-07-28T08:05:37;10.30;;;7.50;;
52057;SDS011;38063;53.210;6.504;2023-07-28T08:08:03;10.05;;;6.65;;
52057;SDS011;38063;53.210;6.504;2023-07-28T08:10:30;11.23;;;7.13;;
52057;SDS011;38063;53.210;6.504;2023-07-28T08:12:56;5.95;;;5.35;;
52057;SDS011;38063;53.210;6.504;2023-07-28T08:15:22;6.65;;;5.82;;
52057;SDS011;38063;53.210;6.504;2023-07-28T08:17:47;9.38;;;6.55;;
52057;SDS011;38063;53.210;6.504;2023-07-28T08:20:14;6.85;;;6.03;;
52057;SDS011;38063;53.210;6.504;2023-07-28T08:22:40;7.93;;;7.13;;
52057;SDS011;38063;53.210;6.504;2023-07-28T08:25:06;9.57;;;6.72;;
52057;SDS011;38063;53.210;6.504;2023-07-28T08:27:31;10.18;;;7.00;;
52057;SDS011;38063;53.210;6.504;2023-07-28T08:29:57;10.70;;;6.80;;
52057;SDS011;38063;53.210;6.504;2023-07-28T08:32:23;7.78;;;6.97;;
52057;SDS011;38063;53.210;6.504;2023-07-28T08:34:48;7.68;;;6.63;;
52057;SDS011;38063;53.210;6.504;2023-07-28T08:37:14;8.88;;;6.68;;
52057;SDS011;38063;53.210;6.504;2023-07-28T08:39:40;30.13;;;7.90;;
52057;SDS011;38063;53.210;6.504;2023-07-28T08:42:05;16.55;;;6.30;;
52057;SDS011;38063;53.210;6.504;2023-07-28T08:44:32;27.45;;;7.80;;
52057;SDS011;38063;53.210;6.504;2023-07-28T08:46:59;13.45;;;6.00;;
52057;SDS011;38063;53.210;6.504;2023-07-28T08:49:30;17.02;;;6.60;;
52057;SDS011;38063;53.210;6.504;2023-07-28T08:51:58;25.38;;;7.13;;
52057;SDS011;38063;53.210;6.504;2023-07-28T08:54:25;7.38;;;5.57;;
52057;SDS011;38063;53.210;6.504;2023-07-28T08:56:50;11.73;;;6.40;;
52057;SDS011;38063;53.210;6.504;2023-07-28T08:59:23;14.40;;;5.82;;
52057;SDS011;38063;53.210;6.504;2023-07-28T09:01:53;20.67;;;6.55;;
52057;SDS011;38063;53.210;6.504;2023-07-28T09:04:22;5.63;;;4.90;;
52057;SDS011;38063;53.210;6.504;2023-07-28T09:06:48;19.50;;;7.22;;
52057;SDS011;38063;53.210;6.504;2023-07-28T09:09:14;14.50;;;6.05;;
52057;SDS011;38063;53.210;6.504;2023-07-28T09:11:48;6.82;;;4.90;;
52057;SDS011;38063;53.210;6.504;2023-07-28T09:14:19;5.65;;;5.10;;
52057;SDS011;38063;53.210;6.504;2023-07-28T09:16:46;7.25;;;4.90;;
52057;SDS011;38063;53.210;6.504;2023-07-28T09:19:12;5.10;;;4.07;;
52057;SDS011;38063;53.210;6.504;2023-07-28T09:21:39;5.45;;;4.68;;
52057;SDS011;38063;53.210;6.504;2023-07-28T09:24:10;23.10;;;5.93;;
52057;SDS011;38063;53.210;6.504;2023-07-28T09:26:40;32.88;;;7.75;;
52057;SDS011;38063;53.210;6.504;2023-07-28T09:29:11;7.40;;;4.63;;
52057;SDS011;38063;53.210;6.504;2023-07-28T09:31:41;14.68;;;4.72;;
52057;SDS011;38063;53.210;6.504;2023-07-28T09:34:10;15.65;;;5.47;;
52057;SDS011;38063;53.210;6.504;2023-07-28T09:36:37;15.38;;;5.50;;
52057;SDS011;38063;53.210;6.504;2023-07-28T09:39:04;7.10;;;3.33;;
52057;SDS011;38063;53.210;6.504;2023-07-28T09:41:36;8.48;;;4.00;;
52057;SDS011;38063;53.210;6.504;2023-07-28T09:44:04;7.20;;;3.28;;
52057;SDS011;38063;53.210;6.504;2023-07-28T09:46:32;6.20;;;3.17;;
52057;SDS011;38063;53.210;6.504;2023-07-28T09:49:05;4.65;;;3.33;;
52057;SDS011;38063;53.210;6.504;2023-07-28T09:51:36;17.67;;;4.27;;
52057;SDS011;38063;53.210;6.504;2023-07-28T09:54:11;22.75;;;5.43;;
52057;SDS011;38063;53.210;6.504;2023-07-28T09:56:40;4.57;;;3.10;;
52057;SDS011;38063;53.210;6.504;2023-07-28T09:59:10;5.60;;;3.85;;
52057;SDS011;38063;53.210;6.504;2023-07-28T10:01:38;5.45;;;3.80;;
52057;SDS011;38063;53.210;6.504;2023-07-28T10:04:04;4.75;;;3.60;;
52057;SDS011;38063;53.210;6.504;2023-07-28T10:06:30;4.38;;;3.60;;
52057;SDS011;38063;53.210;6.504;2023-07-28T10:08:58;5.38;;;3.70;;
52057;SDS011;38063;53.210;6.504;2023-07-28T10:11:24;5.07;;;3.42;;
52057;SDS011;38063;53.210;6.504;2023-07-28T10:13:53;3.78;;;3.10;;
52057;SDS011;38063;53.210;6.504;2023-07-28T10:16:23;6.72;;;3.47;;
52057;SDS011;38063;53.210;6.504;2023-07-28T10:18:56;4.78;;;3.53;;
52057;SDS011;38063;53.210;6.504;2023-07-28T10:21:26;5.05;;;3.58;;
52057;SDS011;38063;53.210;6.504;2023-07-28T10:23:53;7.63;;;4.10;;
52057;SDS011;38063;53.210;6.504;2023-07-28T10:26:35;4.15;;;3.53;;
52057;SDS011;38063;53.210;6.504;2023-07-28T10:29:08;5.65;;;3.22;;
52057;SDS011;38063;53.210;6.504;2023-07-28T10:31:54;6.55;;;3.60;;
52057;SDS011;38063;53.210;6.504;2023-07-28T10:34:21;3.30;;;3.00;;
52057;SDS011;38063;53.210;6.504;2023-07-28T10:36:55;5.65;;;2.67;;
52057;SDS011;38063;53.210;6.504;2023-07-28T10:39:24;4.30;;;2.58;;
52057;SDS011;38063;53.210;6.504;2023-07-28T10:42:01;3.58;;;2.33;;
52057;SDS011;38063;53.210;6.504;2023-07-28T10:44:31;5.38;;;2.53;;
52057;SDS011;38063;53.210;6.504;2023-07-28T10:46:58;3.17;;;2.58;;
52057;SDS011;38063;53.210;6.504;2023-07-28T10:49:33;4.13;;;2.50;;
52057;SDS011;38063;53.210;6.504;2023-07-28T10:51:59;5.45;;;3.45;;
52057;SDS011;38063;53.210;6.504;2023-07-28T10:54:24;5.63;;;2.42;;
52057;SDS011;38063;53.210;6.504;2023-07-28T10:56:50;4.40;;;2.10;;
52057;SDS011;38063;53.210;6.504;2023-07-28T10:59:15;3.33;;;2.38;;
52057;SDS011;38063;53.210;6.504;2023-07-28T11:01:42;6.15;;;3.40;;
52057;SDS011;38063;53.210;6.504;2023-07-28T11:04:15;2.95;;;2.40;;
52057;SDS011;38063;53.210;6.504;2023-07-28T11:06:48;3.95;;;2.08;;
52057;SDS011;38063;53.210;6.504;2023-07-28T11:09:19;4.72;;;1.92;;
52057;SDS011;38063;53.210;6.504;2023-07-28T11:11:48;3.90;;;1.90;;
52057;SDS011;38063;53.210;6.504;2023-07-28T11:14:16;3.95;;;2.20;;
52057;SDS011;38063;53.210;6.504;2023-07-28T11:16:42;4.80;;;2.28;;
52057;SDS011;38063;53.210;6.504;2023-07-28T11:19:10;5.68;;;2.42;;
52057;SDS011;38063;53.210;6.504;2023-07-28T11:21:40;3.50;;;2.20;;
52057;SDS011;38063;53.210;6.504;2023-07-28T11:24:07;4.32;;;2.05;;
52057;SDS011;38063;53.210;6.504;2023-07-28T11:26:37;3.85;;;2.22;;
52057;SDS011;38063;53.210;6.504;2023-07-28T11:29:04;3.53;;;2.17;;
52057;SDS011;38063;53.210;6.504;2023-07-28T11:31:31;5.30;;;2.42;;
52057;SDS011;38063;53.210;6.504;2023-07-28T11:33:58;4.55;;;1.83;;
52057;SDS011;38063;53.210;6.504;2023-07-28T11:36:24;4.82;;;1.70;;
52057;SDS011;38063;53.210;6.504;2023-07-28T11:38:51;6.25;;;1.88;;
52057;SDS011;38063;53.210;6.504;2023-07-28T11:41:18;5.78;;;2.13;;
52057;SDS011;38063;53.210;6.504;2023-07-28T11:43:46;3.03;;;1.70;;
52057;SDS011;38063;53.210;6.504;2023-07-28T11:49:09;3.88;;;1.92;;
52057;SDS011;38063;53.210;6.504;2023-07-28T11:51:42;4.45;;;1.73;;
52057;SDS011;38063;53.210;6.504;2023-07-28T11:54:11;5.05;;;1.70;;
52057;SDS011;38063;53.210;6.504;2023-07-28T11:56:39;2.63;;;1.30;;
52057;SDS011;38063;53.210;6.504;2023-07-28T11:59:06;2.75;;;1.70;;
52057;SDS011;38063;53.210;6.504;2023-07-28T12:01:32;2.45;;;1.33;;
52057;SDS011;38063;53.210;6.504;2023-07-28T12:03:58;4.38;;;1.90;;
52057;SDS011;38063;53.210;6.504;2023-07-28T12:06:25;3.20;;;1.70;;
52057;SDS011;38063;53.210;6.504;2023-07-28T12:08:51;5.20;;;1.90;;
52057;SDS011;38063;53.210;6.504;2023-07-28T12:11:17;2.72;;;1.65;;
52057;SDS011;38063;53.210;6.504;2023-07-28T12:13:47;2.92;;;1.83;;
52057;SDS011;38063;53.210;6.504;2023-07-28T12:19:03;2.35;;;1.33;;
52057;SDS011;38063;53.210;6.504;2023-07-28T12:21:29;2.85;;;1.40;;
52057;SDS011;38063;53.210;6.504;2023-07-28T12:23:56;2.33;;;1.38;;
52057;SDS011;38063;53.210;6.504;2023-07-28T12:26:22;3.47;;;1.40;;
52057;SDS011;38063;53.210;6.504;2023-07-28T12:28:47;5.20;;;1.45;;
52057;SDS011;38063;53.210;6.504;2023-07-28T12:31:13;2.33;;;1.20;;
52057;SDS011;38063;53.210;6.504;2023-07-28T12:33:39;6.40;;;1.50;;
52057;SDS011;38063;53.210;6.504;2023-07-28T12:36:04;3.17;;;1.40;;
52057;SDS011;38063;53.210;6.504;2023-07-28T12:38:31;2.50;;;1.15;;
52057;SDS011;38063;53.210;6.504;2023-07-28T12:40:57;1.60;;;1.27;;
52057;SDS011;38063;53.210;6.504;2023-07-28T12:43:23;2.15;;;1.40;;
52057;SDS011;38063;53.210;6.504;2023-07-28T12:45:50;2.40;;;1.55;;
52057;SDS011;38063;53.210;6.504;2023-07-28T12:48:19;2.17;;;1.20;;
52057;SDS011;38063;53.210;6.504;2023-07-28T12:50:45;1.77;;;1.20;;
52057;SDS011;38063;53.210;6.504;2023-07-28T12:53:11;4.20;;;1.40;;
52057;SDS011;38063;53.210;6.504;2023-07-28T12:55:37;1.88;;;1.45;;
52057;SDS011;38063;53.210;6.504;2023-07-28T12:58:02;1.20;;;1.00;;
52057;SDS011;38063;53.210;6.504;2023-07-28T13:00:28;1.55;;;1.20;;
52057;SDS011;38063;53.210;6.504;2023-07-28T13:02:54;1.90;;;1.00;;
52057;SDS011;38063;53.210;6.504;2023-07-28T13:05:20;1.30;;;0.88;;
52057;SDS011;38063;53.210;6.504;2023-07-28T13:07:45;1.48;;;0.90;;
52057;SDS011;38063;53.210;6.504;2023-07-28T13:10:11;2.95;;;1.33;;
52057;SDS011;38063;53.210;6.504;2023-07-28T13:12:37;2.00;;;1.40;;
52057;SDS011;38063;53.210;6.504;2023-07-28T13:15:03;1.85;;;1.20;;
52057;SDS011;38063;53.210;6.504;2023-07-28T13:17:29;2.03;;;1.35;;
52057;SDS011;38063;53.210;6.504;2023-07-28T13:19:55;3.17;;;1.48;;
52057;SDS011;38063;53.210;6.504;2023-07-28T13:22:23;1.77;;;1.40;;
52057;SDS011;38063;53.210;6.504;2023-07-28T13:24:51;2.45;;;1.80;;
52057;SDS011;38063;53.210;6.504;2023-07-28T13:27:17;2.45;;;1.75;;
52057;SDS011;38063;53.210;6.504;2023-07-28T13:29:43;3.72;;;1.58;;
52057;SDS011;38063;53.210;6.504;2023-07-28T13:32:18;2.22;;;1.67;;
52057;SDS011;38063;53.210;6.504;2023-07-28T13:34:48;3.40;;;1.95;;
52057;SDS011;38063;53.210;6.504;2023-07-28T13:37:14;2.13;;;1.70;;
52057;SDS011;38063;53.210;6.504;2023-07-28T13:39:41;2.92;;;2.03;;
52057;SDS011;38063;53.210;6.504;2023-07-28T13:42:07;3.30;;;1.90;;
52057;SDS011;38063;53.210;6.504;2023-07-28T13:44:33;4.05;;;2.17;;
52057;SDS011;38063;53.210;6.504;2023-07-28T13:46:59;2.55;;;1.95;;
52057;SDS011;38063;53.210;6.504;2023-07-28T13:49:25;2.78;;;1.50;;
52057;SDS011;38063;53.210;6.504;2023-07-28T13:51:51;2.53;;;1.70;;
52057;SDS011;38063;53.210;6.504;2023-07-28T13:54:18;3.83;;;2.25;;
52057;SDS011;38063;53.210;6.504;2023-07-28T13:56:43;2.90;;;1.95;;
52057;SDS011;38063;53.210;6.504;2023-07-28T13:59:11;2.28;;;1.73;;
52057;SDS011;38063;53.210;6.504;2023-07-28T14:01:37;4.93;;;1.80;;
52057;SDS011;38063;53.210;6.504;2023-07-28T14:04:02;2.88;;;2.42;;
52057;SDS011;38063;53.210;6.504;2023-07-28T14:06:28;4.47;;;1.88;;
52057;SDS011;38063;53.210;6.504;2023-07-28T14:08:54;5.75;;;2.40;;
52057;SDS011;38063;53.210;6.504;2023-07-28T14:11:19;6.60;;;2.70;;
52057;SDS011;38063;53.210;6.504;2023-07-28T14:13:45;3.35;;;2.22;;
52057;SDS011;38063;53.210;6.504;2023-07-28T14:16:11;3.22;;;2.33;;
52057;SDS011;38063;53.210;6.504;2023-07-28T14:18:37;3.13;;;2.53;;
52057;SDS011;38063;53.210;6.504;2023-07-28T14:21:03;5.13;;;2.30;;
52057;SDS011;38063;53.210;6.504;2023-07-28T14:23:29;3.60;;;2.40;;
52057;SDS011;38063;53.210;6.504;2023-07-28T14:25:55;2.67;;;1.95;;
52057;SDS011;38063;53.210;6.504;2023-07-28T14:28:21;3.38;;;2.90;;
52057;SDS011;38063;53.210;6.504;2023-07-28T14:30:47;6.03;;;3.47;;
52057;SDS011;38063;53.210;6.504;2023-07-28T14:33:16;3.20;;;2.60;;
52057;SDS011;38063;53.210;6.504;2023-07-28T14:35:46;6.93;;;2.70;;
52057;SDS011;38063;53.210;6.504;2023-07-28T14:38:13;4.05;;;2.92;;
52057;SDS011;38063;53.210;6.504;2023-07-28T14:40:39;3.17;;;2.65;;
52057;SDS011;38063;53.210;6.504;2023-07-28T14:43:08;3.80;;;2.38;;
52057;SDS011;38063;53.210;6.504;2023-07-28T14:45:34;5.40;;;2.50;;
52057;SDS011;38063;53.210;6.504;2023-07-28T14:47:59;3.38;;;2.42;;